Adams Mills, OH

6:28 AM EST on March 05, 2015 (GMT -0500)
Falls Twp | Change Station
CLOSE
Current Station
Personal Weather Station
Location: North Zanesville, OH
Elevation: 800 ft
Nearby Weather Stations

Elev 800 ft 39.98 °N, 82.02 °W | Updated 1 second ago

Snow
Snow
16.7 °F
Feels Like 10 °F
N
4.0
Wind Variable Wind from NNW
Gusts 7.0 mph

Today
High -- | Low -- °F
--% Chance of Precip.
Yesterday
High -- | Low -- °F
Precip. -- in
6:55 AM 6:23 PM
Full, 100% visible
Pressure 30.23 in
Visibility 1.2 miles
Clouds Overcast 2000 ft
Windchill 10 °F
Dew Point 14 °F
Humidity 91%
Rainfall in
Snow Depth Not available.
UV 0 out of 12
Pollen .60 out of 12
Air Quality Not available.
Flu Activity Not available.
SPECI KZZV 051119Z AUTO 36006KT 1 1/4SM -SN BR OVC020 M09/M11 A3023 RMK AO2 P0000 T10891111 TSNO

More Conditions Fewer Conditions

Pressure 30.23 in
Visibility 1.2 miles
Clouds Overcast 2000 ft
Windchill 10 °F
Dew Point 14 °F
Humidity 91%
Rainfall in
Snow Depth Not available.
UV 0 out of 12
Pollen .60 out of 12
Air Quality Not available.
Flu Activity Not available.
SPECI KZZV 051119Z AUTO 36006KT 1 1/4SM -SN BR OVC020 M09/M11 A3023 RMK AO2 P0000 T10891111 TSNO

More Conditions Fewer Conditions

10-Day Weather Forecast

Almanac

Astronomy

Mar. 05, 2015 Rise Set
Actual Time
Civil Twilight
Nautical Twilight
Astronomical Twilight
Moon
Length of Visible Light
Length of Day
Tomorrow will be .
, % of the Moon is Illuminated

Today's Extremes

State Highs State Lows

Community

WunderPhotos

Upload Photos

1,802,716 photos uploaded!

WunderBlogs® & News

Nearby

Air Quality

  Air Quality AQ Index Pollutant
Not available.

Snow Depth

Station Depth Elevation

Earthquake Activity

City Distance Mag. Time & Date
Minimum magnitude displayed is 2.5.

Coastal Water Temperatures

Place Temperature

Nearby Weather Stations

Winter Weather Advisory
Statement as of 3:50 AM EST on March 05, 2015

... Winter Weather Advisory remains in effect until 4 PM EST this
afternoon...

* additional snow accumulations... 1 to 3 inches.

* Period of most intense snow... overnight through mid morning.

* Snow ending... by this afternoon.

* Impacts... hazardous travel conditions are expected due to snow
accumulation.

Precautionary/preparedness actions...

A Winter Weather Advisory for snow means that snowfall will cause
travel difficulties. Report snow accumulation to the National
Weather Service by calling 412-262-1988... posting to the NWS
Pittsburgh facebook Page... or using twitter @nwspittsburgh.